Happy Valley, New Mexico
Current Conditions -  °F | °C
As of 4:53 AM on Monday 22 Dec 2014 (Local Time) from KCNM Reporting Station
Clear Clear  
Wind Chill: 60°   Ceiling: Unl
Heat Index: 60°   Visibility: 10mi
Dew Point: 28°   Wind: 22mph
Humidity: 30%   Direction: 250°WSW
Pressure: 29.74"   Gusts: 29mph
Location:  32.3187°N, 104.429°W
Report Text: KCNM 221153Z AUTO 25019G25KT 10SM CLR 16/M02 A2974 RMK AO2 PK WND 27027/1123 SLP032 T01561022 10167 20156 53003 $
Loading
Personal Weather Stations






























Interactive Weather Map New forecast layout! Learn more

10-Day Weather Forecast

Advertisements
Track Severe Weather on mobile